Cap Isabel — VRGA2 — position and weather

sailwx.info

Track history (hours):
 
Tides and Currents Weather Stations Pressure Air Temp Water Temp Dewpoint Dewpoint Depression Visibility Wind Speed Wind Dir Waves Ship Positions

Cap Isabel

Last reported at 2015-May-18 12:33 UTC. Time now 2015-May-22 08:33 UTC.
Position N 25°44' W 079°58'.

Length 264 m; draft 9.9 m.

Type: Ship (hazmat cat C). MMSI: 477639500.

Date/timePositionNaut miles runAvg speedWind from/ knotsBaromVisibWave heightAir tempDewpointWater temp
2015-May-18 12:33N 25°44' W 079°58'1717.4
2015-May-18 11:33N 26°00' W 080°03'5 5.1
2015-May-18 10:34N 26°04' W 080°07'0 0.1
2015-May-18 09:27N 26°04' W 080°07'0 0.0
2015-May-18 08:27N 26°04' W 080°07'0 0.0
2015-May-18 07:27N 26°04' W 080°07'0 0.0
2015-May-18 06:30N 26°04' W 080°07'0 0.0
2015-May-18 05:30N 26°04' W 080°07'0 0.0
2015-May-18 04:30N 26°04' W 080°07'0 0.0
2015-May-18 03:33N 26°04' W 080°07'0 0.0
2015-May-18 02:33N 26°04' W 080°07'0 0.0
2015-May-18 01:33N 26°04' W 080°07'0 0.0
2015-May-18 00:30N 26°04' W 080°07'0 0.0
2015-May-17 23:33N 26°04' W 080°07'0 0.0
2015-May-17 22:33N 26°04' W 080°07'0 0.0
2015-May-17 21:33N 26°04' W 080°07'0 0.0
2015-May-17 20:24N 26°04' W 080°07'0 0.0
2015-May-17 19:27N 26°04' W 080°07'0 0.0
2015-May-17 18:27N 26°04' W 080°07'0 0.0
2015-May-17 17:12N 26°04' W 080°07'0 0.0
2015-May-17 16:30N 26°04' W 080°07'0 0.0
2015-May-17 15:30N 26°04' W 080°07'0 0.0
2015-May-17 14:30N 26°04' W 080°07'0 0.0
2015-May-17 13:33N 26°04' W 080°07'0 0.0
2015-May-17 12:33N 26°04' W 080°07'1 1.3
2015-May-17 11:33N 26°06' W 080°07'6 6.3
2015-May-17 10:33N 26°10' W 080°02'1312.9
2015-May-17 09:33N 26°23' W 079°59'1716.9
2015-May-17 08:33N 26°39' W 079°56'1716.8
2015-May-17 07:33N 26°56' W 079°55'  
2015-May-14 08:20N 38°09' W 076°14'4120.3
2015-May-14 06:20N 38°49' W 076°25'2413.5
2015-May-14 04:33N 39°13' W 076°31'3 2.9
2015-May-14 03:33N 39°15' W 076°33'0 0.0
2015-May-14 02:32N 39°15' W 076°33'0 0.0
2015-May-14 01:32N 39°15' W 076°33'0 0.0
2015-May-14 00:32N 39°15' W 076°33'0 0.0
2015-May-13 23:32N 39°15' W 076°33'0 0.0
2015-May-13 22:29N 39°15' W 076°33'0 0.0
2015-May-13 21:32N 39°15' W 076°33'0 0.0
2015-May-13 20:32N 39°15' W 076°33'0 0.0
2015-May-13 19:29N 39°15' W 076°33'0 0.0
2015-May-13 18:23N 39°15' W 076°33'2 0.4
2015-May-13 14:30N 39°14' W 076°33'9 9.8
2015-May-13 13:33N 39°08' W 076°24'1714.7
2015-May-13 12:23N 38°50' W 076°24'5318.7
2015-May-13 09:33N 37°59' W 076°11'127 9.6
2015-May-12 20:21N 39°18' W 074°04'1721.0
2015-May-12 19:33N 39°33' W 073°56'2020.1
2015-May-12 18:33N 39°53' W 073°51'2713.4
2015-May-12 16:33N 40°20' W 073°49'9 9.1
2015-May-12 15:33N 40°28' W 073°53'1413.7
2015-May-12 14:34N 40°39' W 074°03'2 1.5
2015-May-12 13:32N 40°40' W 074°05'0 0.0
2015-May-12 12:32N 40°40' W 074°05'0 0.0
2015-May-12 11:32N 40°40' W 074°05'0 0.0
2015-May-12 10:32N 40°40' W 074°05'0 0.0
2015-May-12 09:32N 40°40' W 074°05'0 0.0
2015-May-12 08:32N 40°40' W 074°05'0 0.0
2015-May-12 07:32N 40°40' W 074°05'0 0.0
2015-May-12 06:32N 40°40' W 074°05'0 0.0
2015-May-12 05:32N 40°40' W 074°05'0 0.0
2015-May-12 04:32N 40°40' W 074°05'0 0.0
2015-May-12 03:32N 40°40' W 074°05'0 0.0
2015-May-12 02:32N 40°40' W 074°05'0 0.0
2015-May-12 01:32N 40°40' W 074°05'0 0.0
2015-May-12 00:32N 40°40' W 074°05'0 0.0
2015-May-11 23:32N 40°40' W 074°05'0 0.0
2015-May-11 22:32N 40°40' W 074°05'0 0.0
2015-May-11 21:32N 40°40' W 074°05'0 0.0
2015-May-11 20:32N 40°40' W 074°05'0 0.0
2015-May-11 19:32N 40°40' W 074°05'0 0.0
2015-May-11 18:32N 40°40' W 074°05'0 0.0
2015-May-11 17:32N 40°40' W 074°05'0 0.0
2015-May-11 16:32N 40°40' W 074°05'0 0.0
2015-May-11 15:32N 40°40' W 074°05'0 0.0
2015-May-11 14:32N 40°40' W 074°05'0 0.0
2015-May-11 13:32N 40°40' W 074°05'0 0.0
2015-May-11 12:29N 40°40' W 074°05'0 0.0
2015-May-11 11:32N 40°40' W 074°05'0 0.0
2015-May-11 10:32N 40°40' W 074°05'0 0.1
2015-May-11 09:33N 40°40' W 074°05'8 7.5
2015-May-11 08:33N 40°33' W 074°02'1111.5
2015-May-11 07:33N 40°27' W 073°49'8 8.3
2015-May-11 06:33N 40°19' W 073°46'9 9.0
2015-May-11 05:33N 40°10' W 073°45'1514.1
2015-May-11 04:32N 39°55' W 073°42'3417.1
2015-May-11 02:31N 39°21' W 073°41'1717.1
2015-May-11 01:33N 39°05' W 073°42'1717.2
2015-May-11 00:34N 38°47' W 073°42'1717.1
2015-May-10 23:33N 38°30' W 073°43'1717.3
2015-May-10 22:33N 38°13' W 073°44'1817.3
2015-May-10 21:30N 37°55' W 073°44'1717.1
2015-May-10 20:32N 37°38' W 073°45'3617.2
2015-May-10 18:25N 37°02' W 073°46'  
Track history (hours):
 
Tides and Currents Weather Stations Pressure Air Temp Water Temp Dewpoint Dewpoint Depression Visibility Wind Speed Wind Dir Waves Ship Positions

Cap Isabel

Last reported at 2015-May-18 12:33 UTC. Time now 2015-May-22 08:33 UTC.
Position N 25°44' W 079°58'.

Length 264 m; draft 9.9 m.

Type: Ship (hazmat cat C). MMSI: 477639500.

Date/timePositionNaut miles runAvg speedWind from/ knotsBaromVisibWave heightAir tempDewpointWater temp
2015-May-18 12:33N 25°44' W 079°58'1717.4
2015-May-18 11:33N 26°00' W 080°03'5 5.1
2015-May-18 10:34N 26°04' W 080°07'0 0.1
2015-May-18 09:27N 26°04' W 080°07'0 0.0
2015-May-18 08:27N 26°04' W 080°07'0 0.0
2015-May-18 07:27N 26°04' W 080°07'0 0.0
2015-May-18 06:30N 26°04' W 080°07'0 0.0
2015-May-18 05:30N 26°04' W 080°07'0 0.0
2015-May-18 04:30N 26°04' W 080°07'0 0.0
2015-May-18 03:33N 26°04' W 080°07'0 0.0
2015-May-18 02:33N 26°04' W 080°07'0 0.0
2015-May-18 01:33N 26°04' W 080°07'0 0.0
2015-May-18 00:30N 26°04' W 080°07'0 0.0
2015-May-17 23:33N 26°04' W 080°07'0 0.0
2015-May-17 22:33N 26°04' W 080°07'0 0.0
2015-May-17 21:33N 26°04' W 080°07'0 0.0
2015-May-17 20:24N 26°04' W 080°07'0 0.0
2015-May-17 19:27N 26°04' W 080°07'0 0.0
2015-May-17 18:27N 26°04' W 080°07'0 0.0
2015-May-17 17:12N 26°04' W 080°07'0 0.0
2015-May-17 16:30N 26°04' W 080°07'0 0.0
2015-May-17 15:30N 26°04' W 080°07'0 0.0
2015-May-17 14:30N 26°04' W 080°07'0 0.0
2015-May-17 13:33N 26°04' W 080°07'0 0.0
2015-May-17 12:33N 26°04' W 080°07'1 1.3
2015-May-17 11:33N 26°06' W 080°07'6 6.3
2015-May-17 10:33N 26°10' W 080°02'1312.9
2015-May-17 09:33N 26°23' W 079°59'1716.9
2015-May-17 08:33N 26°39' W 079°56'1716.8
2015-May-17 07:33N 26°56' W 079°55'  
2015-May-14 08:20N 38°09' W 076°14'4120.3
2015-May-14 06:20N 38°49' W 076°25'2413.5
2015-May-14 04:33N 39°13' W 076°31'3 2.9
2015-May-14 03:33N 39°15' W 076°33'0 0.0
2015-May-14 02:32N 39°15' W 076°33'0 0.0
2015-May-14 01:32N 39°15' W 076°33'0 0.0
2015-May-14 00:32N 39°15' W 076°33'0 0.0
2015-May-13 23:32N 39°15' W 076°33'0 0.0
2015-May-13 22:29N 39°15' W 076°33'0 0.0
2015-May-13 21:32N 39°15' W 076°33'0 0.0
2015-May-13 20:32N 39°15' W 076°33'0 0.0
2015-May-13 19:29N 39°15' W 076°33'0 0.0
2015-May-13 18:23N 39°15' W 076°33'2 0.4
2015-May-13 14:30N 39°14' W 076°33'9 9.8
2015-May-13 13:33N 39°08' W 076°24'1714.7
2015-May-13 12:23N 38°50' W 076°24'5318.7
2015-May-13 09:33N 37°59' W 076°11'127 9.6
2015-May-12 20:21N 39°18' W 074°04'1721.0
2015-May-12 19:33N 39°33' W 073°56'2020.1
2015-May-12 18:33N 39°53' W 073°51'2713.4
2015-May-12 16:33N 40°20' W 073°49'9 9.1
2015-May-12 15:33N 40°28' W 073°53'1413.7
2015-May-12 14:34N 40°39' W 074°03'2 1.5
2015-May-12 13:32N 40°40' W 074°05'0 0.0
2015-May-12 12:32N 40°40' W 074°05'0 0.0
2015-May-12 11:32N 40°40' W 074°05'0 0.0
2015-May-12 10:32N 40°40' W 074°05'0 0.0
2015-May-12 09:32N 40°40' W 074°05'0 0.0
2015-May-12 08:32N 40°40' W 074°05'0 0.0
2015-May-12 07:32N 40°40' W 074°05'0 0.0
2015-May-12 06:32N 40°40' W 074°05'0 0.0
2015-May-12 05:32N 40°40' W 074°05'0 0.0
2015-May-12 04:32N 40°40' W 074°05'0 0.0
2015-May-12 03:32N 40°40' W 074°05'0 0.0
2015-May-12 02:32N 40°40' W 074°05'0 0.0
2015-May-12 01:32N 40°40' W 074°05'0 0.0
2015-May-12 00:32N 40°40' W 074°05'0 0.0
2015-May-11 23:32N 40°40' W 074°05'0 0.0
2015-May-11 22:32N 40°40' W 074°05'0 0.0
2015-May-11 21:32N 40°40' W 074°05'0 0.0
2015-May-11 20:32N 40°40' W 074°05'0 0.0
2015-May-11 19:32N 40°40' W 074°05'0 0.0
2015-May-11 18:32N 40°40' W 074°05'0 0.0
2015-May-11 17:32N 40°40' W 074°05'0 0.0
2015-May-11 16:32N 40°40' W 074°05'0 0.0
2015-May-11 15:32N 40°40' W 074°05'0 0.0
2015-May-11 14:32N 40°40' W 074°05'0 0.0
2015-May-11 13:32N 40°40' W 074°05'0 0.0
2015-May-11 12:29N 40°40' W 074°05'0 0.0
2015-May-11 11:32N 40°40' W 074°05'0 0.0
2015-May-11 10:32N 40°40' W 074°05'0 0.1
2015-May-11 09:33N 40°40' W 074°05'8 7.5
2015-May-11 08:33N 40°33' W 074°02'1111.5
2015-May-11 07:33N 40°27' W 073°49'8 8.3
2015-May-11 06:33N 40°19' W 073°46'9 9.0
2015-May-11 05:33N 40°10' W 073°45'1514.1
2015-May-11 04:32N 39°55' W 073°42'3417.1
2015-May-11 02:31N 39°21' W 073°41'1717.1
2015-May-11 01:33N 39°05' W 073°42'1717.2
2015-May-11 00:34N 38°47' W 073°42'1717.1
2015-May-10 23:33N 38°30' W 073°43'1717.3
2015-May-10 22:33N 38°13' W 073°44'1817.3
2015-May-10 21:30N 37°55' W 073°44'1717.1
2015-May-10 20:32N 37°38' W 073°45'3617.2
2015-May-10 18:25N 37°02' W 073°46'  

Dump ship's entire track history